Terminal Aerodrome Forecast
Issued by NWS

Home | Current Version | Previous Version | Text Only | Print | Product List | Glossary On
Versions: 1 2 3 4 5 6 7 8 9 10 11 12 13
523
FTUS42 TJSJ 210358 AAA
TAFJBQ
TAF AMD
TJBQ 210358Z 2104/2124 09012KT P6SM VCSH SCT025
      TEMPO 2104/2105 5SM SHRA BKN025
     FM211200 09016KT P6SM FEW025
     FM211600 08017G25KT P6SM VCTS SCT030CB SCT040=

USA.gov is the U.S. government's official web portal to all federal, state and local government web resources and services.